sensor_id;sensor_type;location;lat;lon;timestamp;pressure;altitude;pressure_sealevel;temperature;humidity
70242;BME280;57631;52.218;0.108;2022-12-07T00:01:05;102355.72;;;6.44;63.42
70242;BME280;57631;52.218;0.108;2022-12-07T00:03:24;102354.14;;;6.71;60.87
70242;BME280;57631;52.218;0.108;2022-12-07T00:05:50;102352.56;;;6.60;61.07
70242;BME280;57631;52.218;0.108;2022-12-07T00:08:15;102351.87;;;7.55;58.71
70242;BME280;57631;52.218;0.108;2022-12-07T00:10:41;102348.27;;;6.97;60.68
70242;BME280;57631;52.218;0.108;2022-12-07T00:13:06;102348.90;;;7.34;59.84
70242;BME280;57631;52.218;0.108;2022-12-07T00:15:33;102347.59;;;7.02;60.83
70242;BME280;57631;52.218;0.108;2022-12-07T00:17:57;102344.70;;;7.09;60.10
70242;BME280;57631;52.218;0.108;2022-12-07T00:20:22;102340.95;;;7.15;60.64
70242;BME280;57631;52.218;0.108;2022-12-07T00:22:47;102337.89;;;6.99;60.29
70242;BME280;57631;52.218;0.108;2022-12-07T00:25:13;102339.35;;;6.66;61.96
70242;BME280;57631;52.218;0.108;2022-12-07T00:27:39;102338.01;;;6.78;62.62
70242;BME280;57631;52.218;0.108;2022-12-07T00:30:06;102337.45;;;6.01;62.28
70242;BME280;57631;52.218;0.108;2022-12-07T00:32:30;102336.05;;;7.19;60.47
70242;BME280;57631;52.218;0.108;2022-12-07T00:34:55;102332.21;;;7.44;59.92
70242;BME280;57631;52.218;0.108;2022-12-07T00:37:20;102328.95;;;7.07;58.97
70242;BME280;57631;52.218;0.108;2022-12-07T00:39:46;102331.70;;;7.35;59.40
70242;BME280;57631;52.218;0.108;2022-12-07T00:42:12;102330.69;;;7.20;59.51
70242;BME280;57631;52.218;0.108;2022-12-07T00:44:37;102328.60;;;6.85;58.59
70242;BME280;57631;52.218;0.108;2022-12-07T00:47:03;102330.22;;;6.62;59.18
70242;BME280;57631;52.218;0.108;2022-12-07T00:49:29;102329.05;;;6.40;61.65
70242;BME280;57631;52.218;0.108;2022-12-07T00:51:54;102325.82;;;6.13;61.51
70242;BME280;57631;52.218;0.108;2022-12-07T00:54:20;102324.54;;;6.46;61.54
70242;BME280;57631;52.218;0.108;2022-12-07T00:56:46;102320.76;;;6.97;59.59
70242;BME280;57631;52.218;0.108;2022-12-07T00:59:13;102321.66;;;6.24;61.19
70242;BME280;57631;52.218;0.108;2022-12-07T01:01:38;102320.98;;;6.30;61.37
70242;BME280;57631;52.218;0.108;2022-12-07T01:04:03;102318.85;;;6.28;59.95
70242;BME280;57631;52.218;0.108;2022-12-07T01:06:28;102318.74;;;6.37;61.02
70242;BME280;57631;52.218;0.108;2022-12-07T01:08:54;102319.80;;;6.56;61.94
70242;BME280;57631;52.218;0.108;2022-12-07T01:11:21;102319.62;;;6.46;62.02
70242;BME280;57631;52.218;0.108;2022-12-07T01:13:45;102321.06;;;5.87;63.44
70242;BME280;57631;52.218;0.108;2022-12-07T01:16:12;102318.97;;;5.62;63.69
70242;BME280;57631;52.218;0.108;2022-12-07T01:18:36;102316.59;;;5.45;64.26
70242;BME280;57631;52.218;0.108;2022-12-07T01:21:02;102317.36;;;4.97;65.00
70242;BME280;57631;52.218;0.108;2022-12-07T01:23:26;102320.26;;;6.08;63.74
70242;BME280;57631;52.218;0.108;2022-12-07T01:25:54;102324.55;;;5.79;63.31
70242;BME280;57631;52.218;0.108;2022-12-07T01:28:16;102323.43;;;5.67;64.69
70242;BME280;57631;52.218;0.108;2022-12-07T01:30:41;102319.09;;;5.40;64.56
70242;BME280;57631;52.218;0.108;2022-12-07T01:33:06;102321.69;;;5.17;65.41
70242;BME280;57631;52.218;0.108;2022-12-07T01:35:33;102321.97;;;5.42;65.02
70242;BME280;57631;52.218;0.108;2022-12-07T01:37:57;102324.39;;;5.25;65.39
70242;BME280;57631;52.218;0.108;2022-12-07T01:40:22;102322.03;;;5.90;63.84
70242;BME280;57631;52.218;0.108;2022-12-07T01:42:47;102318.60;;;5.65;63.98
70242;BME280;57631;52.218;0.108;2022-12-07T01:47:38;102315.89;;;5.87;63.50
70242;BME280;57631;52.218;0.108;2022-12-07T01:50:04;102316.40;;;4.87;65.56
70242;BME280;57631;52.218;0.108;2022-12-07T01:52:31;102310.53;;;5.18;66.00
70242;BME280;57631;52.218;0.108;2022-12-07T01:54:56;102314.89;;;4.77;67.06
70242;BME280;57631;52.218;0.108;2022-12-07T01:57:19;102311.15;;;5.22;65.87
70242;BME280;57631;52.218;0.108;2022-12-07T01:59:45;102313.43;;;4.87;66.95
70242;BME280;57631;52.218;0.108;2022-12-07T02:02:17;102310.97;;;4.88;66.31
70242;BME280;57631;52.218;0.108;2022-12-07T02:04:36;102313.65;;;5.66;64.16
70242;BME280;57631;52.218;0.108;2022-12-07T02:07:01;102315.67;;;4.98;64.74
70242;BME280;57631;52.218;0.108;2022-12-07T02:09:26;102317.98;;;6.03;62.55
70242;BME280;57631;52.218;0.108;2022-12-07T02:11:52;102316.20;;;6.16;62.96
70242;BME280;57631;52.218;0.108;2022-12-07T02:14:16;102313.07;;;6.07;63.24
70242;BME280;57631;52.218;0.108;2022-12-07T02:16:53;102310.80;;;6.29;62.50
70242;BME280;57631;52.218;0.108;2022-12-07T02:19:21;102306.53;;;5.57;62.74
70242;BME280;57631;52.218;0.108;2022-12-07T02:21:39;102307.44;;;4.86;64.41
70242;BME280;57631;52.218;0.108;2022-12-07T02:24:13;102307.56;;;5.68;62.79
70242;BME280;57631;52.218;0.108;2022-12-07T02:31:19;102307.44;;;5.62;64.15
70242;BME280;57631;52.218;0.108;2022-12-07T02:33:43;102303.54;;;5.69;63.34
70242;BME280;57631;52.218;0.108;2022-12-07T02:36:08;102301.85;;;5.33;63.61
70242;BME280;57631;52.218;0.108;2022-12-07T02:38:37;102299.06;;;5.60;63.91
70242;BME280;57631;52.218;0.108;2022-12-07T02:41:02;102306.70;;;5.63;63.79
70242;BME280;57631;52.218;0.108;2022-12-07T02:43:24;102307.83;;;4.90;65.15
70242;BME280;57631;52.218;0.108;2022-12-07T02:45:47;102305.15;;;5.25;64.84
70242;BME280;57631;52.218;0.108;2022-12-07T02:48:14;102305.36;;;5.95;63.01
70242;BME280;57631;52.218;0.108;2022-12-07T02:50:36;102301.86;;;5.36;63.46
70242;BME280;57631;52.218;0.108;2022-12-07T02:53:01;102301.25;;;5.46;62.12
70242;BME280;57631;52.218;0.108;2022-12-07T02:55:30;102299.45;;;6.42;60.81
70242;BME280;57631;52.218;0.108;2022-12-07T02:58:04;102303.88;;;6.34;60.95
70242;BME280;57631;52.218;0.108;2022-12-07T03:00:19;102304.20;;;5.49;63.40
70242;BME280;57631;52.218;0.108;2022-12-07T03:02:51;102303.53;;;5.29;64.95
70242;BME280;57631;52.218;0.108;2022-12-07T03:05:20;102305.80;;;5.74;63.18
70242;BME280;57631;52.218;0.108;2022-12-07T03:07:37;102303.61;;;5.72;63.49
70242;BME280;57631;52.218;0.108;2022-12-07T03:10:03;102297.79;;;5.59;60.69
70242;BME280;57631;52.218;0.108;2022-12-07T03:12:29;102298.24;;;5.90;61.67
70242;BME280;57631;52.218;0.108;2022-12-07T03:14:55;102297.20;;;6.34;61.09
70242;BME280;57631;52.218;0.108;2022-12-07T03:17:19;102297.42;;;5.85;62.27
70242;BME280;57631;52.218;0.108;2022-12-07T03:19:41;102297.04;;;5.68;63.14
70242;BME280;57631;52.218;0.108;2022-12-07T03:22:08;102292.06;;;5.85;63.50
70242;BME280;57631;52.218;0.108;2022-12-07T03:24:40;102289.47;;;5.68;62.16
70242;BME280;57631;52.218;0.108;2022-12-07T03:27:03;102282.76;;;6.23;60.23
70242;BME280;57631;52.218;0.108;2022-12-07T03:29:25;102277.10;;;6.37;60.29
70242;BME280;57631;52.218;0.108;2022-12-07T03:31:51;102277.06;;;5.89;61.89
70242;BME280;57631;52.218;0.108;2022-12-07T03:34:16;102277.16;;;5.79;61.22
70242;BME280;57631;52.218;0.108;2022-12-07T03:36:41;102273.07;;;6.08;60.50
70242;BME280;57631;52.218;0.108;2022-12-07T03:39:12;102274.86;;;5.77;61.53
70242;BME280;57631;52.218;0.108;2022-12-07T03:41:32;102274.80;;;5.91;61.59
70242;BME280;57631;52.218;0.108;2022-12-07T03:43:56;102270.96;;;5.84;62.16
70242;BME280;57631;52.218;0.108;2022-12-07T03:46:27;102274.07;;;5.98;61.15
70242;BME280;57631;52.218;0.108;2022-12-07T03:48:52;102270.47;;;6.01;61.70
70242;BME280;57631;52.218;0.108;2022-12-07T03:51:17;102271.76;;;5.63;61.65
70242;BME280;57631;52.218;0.108;2022-12-07T03:53:40;102274.85;;;5.85;63.00
70242;BME280;57631;52.218;0.108;2022-12-07T03:56:02;102273.64;;;5.66;61.65
70242;BME280;57631;52.218;0.108;2022-12-07T03:58:28;102276.48;;;6.03;60.33
70242;BME280;57631;52.218;0.108;2022-12-07T04:00:53;102276.06;;;6.36;60.94
70242;BME280;57631;52.218;0.108;2022-12-07T04:03:19;102277.55;;;6.00;60.78
70242;BME280;57631;52.218;0.108;2022-12-07T04:05:44;102277.05;;;6.26;58.93
70242;BME280;57631;52.218;0.108;2022-12-07T04:08:09;102274.07;;;6.38;58.96
70242;BME280;57631;52.218;0.108;2022-12-07T04:10:35;102274.99;;;6.88;59.05
70242;BME280;57631;52.218;0.108;2022-12-07T04:13:01;102273.93;;;6.06;58.52
70242;BME280;57631;52.218;0.108;2022-12-07T04:15:26;102271.66;;;6.26;58.82
70242;BME280;57631;52.218;0.108;2022-12-07T04:17:51;102268.81;;;6.73;57.50
70242;BME280;57631;52.218;0.108;2022-12-07T04:20:17;102266.14;;;6.30;58.61
70242;BME280;57631;52.218;0.108;2022-12-07T04:22:42;102267.08;;;6.02;59.78
70242;BME280;57631;52.218;0.108;2022-12-07T04:25:07;102266.17;;;5.84;59.59
70242;BME280;57631;52.218;0.108;2022-12-07T04:27:33;102265.67;;;6.34;59.63
70242;BME280;57631;52.218;0.108;2022-12-07T04:29:59;102262.36;;;5.93;60.15
70242;BME280;57631;52.218;0.108;2022-12-07T04:32:24;102262.83;;;5.70;59.75
70242;BME280;57631;52.218;0.108;2022-12-07T04:34:50;102264.75;;;5.83;60.95
70242;BME280;57631;52.218;0.108;2022-12-07T04:37:15;102259.91;;;5.73;60.26
70242;BME280;57631;52.218;0.108;2022-12-07T04:39:40;102262.04;;;5.31;62.27
70242;BME280;57631;52.218;0.108;2022-12-07T04:42:06;102256.33;;;5.69;59.64
70242;BME280;57631;52.218;0.108;2022-12-07T04:44:31;102255.20;;;5.84;60.07
70242;BME280;57631;52.218;0.108;2022-12-07T04:46:57;102256.45;;;5.96;59.51
70242;BME280;57631;52.218;0.108;2022-12-07T04:49:22;102255.57;;;6.34;58.45
70242;BME280;57631;52.218;0.108;2022-12-07T04:51:48;102252.94;;;6.23;58.62
70242;BME280;57631;52.218;0.108;2022-12-07T04:54:14;102250.33;;;6.50;58.89
70242;BME280;57631;52.218;0.108;2022-12-07T04:56:39;102248.34;;;6.13;58.38
70242;BME280;57631;52.218;0.108;2022-12-07T04:59:05;102246.04;;;5.75;60.00
70242;BME280;57631;52.218;0.108;2022-12-07T05:01:30;102242.12;;;6.17;59.16
70242;BME280;57631;52.218;0.108;2022-12-07T05:03:55;102238.81;;;6.28;58.88
70242;BME280;57631;52.218;0.108;2022-12-07T05:06:21;102238.52;;;5.61;59.89
70242;BME280;57631;52.218;0.108;2022-12-07T05:08:47;102229.00;;;5.48;61.35
70242;BME280;57631;52.218;0.108;2022-12-07T05:11:13;102230.15;;;5.90;58.65
70242;BME280;57631;52.218;0.108;2022-12-07T05:13:37;102229.20;;;6.24;58.88
70242;BME280;57631;52.218;0.108;2022-12-07T05:16:03;102223.78;;;5.75;59.66
70242;BME280;57631;52.218;0.108;2022-12-07T05:18:28;102228.60;;;6.11;58.97
70242;BME280;57631;52.218;0.108;2022-12-07T05:20:54;102231.46;;;6.16;59.41
70242;BME280;57631;52.218;0.108;2022-12-07T05:23:20;102232.55;;;6.16;59.64
70242;BME280;57631;52.218;0.108;2022-12-07T05:25:46;102232.02;;;6.31;58.75
70242;BME280;57631;52.218;0.108;2022-12-07T05:28:11;102232.28;;;6.19;57.73
70242;BME280;57631;52.218;0.108;2022-12-07T05:30:37;102233.70;;;5.99;58.43
70242;BME280;57631;52.218;0.108;2022-12-07T05:33:02;102234.04;;;5.42;60.29
70242;BME280;57631;52.218;0.108;2022-12-07T05:35:28;102234.42;;;5.12;61.24
70242;BME280;57631;52.218;0.108;2022-12-07T05:37:54;102231.63;;;5.27;63.22
70242;BME280;57631;52.218;0.108;2022-12-07T05:40:19;102238.15;;;5.24;62.62
70242;BME280;57631;52.218;0.108;2022-12-07T05:42:45;102243.20;;;5.27;62.09
70242;BME280;57631;52.218;0.108;2022-12-07T05:45:10;102238.03;;;5.07;62.37
70242;BME280;57631;52.218;0.108;2022-12-07T05:47:36;102235.31;;;5.24;60.84
70242;BME280;57631;52.218;0.108;2022-12-07T05:50:03;102236.30;;;4.81;62.12
70242;BME280;57631;52.218;0.108;2022-12-07T05:52:27;102241.47;;;4.49;63.64
70242;BME280;57631;52.218;0.108;2022-12-07T05:54:53;102236.79;;;4.70;63.52
70242;BME280;57631;52.218;0.108;2022-12-07T05:57:18;102239.11;;;4.14;65.52
70242;BME280;57631;52.218;0.108;2022-12-07T05:59:44;102239.84;;;4.52;64.71
70242;BME280;57631;52.218;0.108;2022-12-07T06:02:11;102234.34;;;4.74;63.83
70242;BME280;57631;52.218;0.108;2022-12-07T06:04:38;102231.34;;;5.19;63.53
70242;BME280;57631;52.218;0.108;2022-12-07T06:07:01;102231.19;;;4.94;61.02
70242;BME280;57631;52.218;0.108;2022-12-07T06:09:28;102234.45;;;5.50;59.65
70242;BME280;57631;52.218;0.108;2022-12-07T06:11:52;102226.62;;;5.44;60.59
70242;BME280;57631;52.218;0.108;2022-12-07T06:14:18;102227.84;;;4.93;62.13
70242;BME280;57631;52.218;0.108;2022-12-07T06:16:44;102232.06;;;5.27;61.40
70242;BME280;57631;52.218;0.108;2022-12-07T06:19:09;102231.24;;;5.20;60.60
70242;BME280;57631;52.218;0.108;2022-12-07T06:21:35;102228.26;;;5.38;61.24
70242;BME280;57631;52.218;0.108;2022-12-07T06:24:01;102232.55;;;5.26;60.82
70242;BME280;57631;52.218;0.108;2022-12-07T06:26:26;102233.05;;;5.55;60.50
70242;BME280;57631;52.218;0.108;2022-12-07T06:28:51;102236.68;;;5.38;60.76
70242;BME280;57631;52.218;0.108;2022-12-07T06:31:17;102236.57;;;5.48;61.75
70242;BME280;57631;52.218;0.108;2022-12-07T06:33:43;102238.39;;;5.22;60.83
70242;BME280;57631;52.218;0.108;2022-12-07T06:36:09;102235.10;;;5.00;61.92
70242;BME280;57631;52.218;0.108;2022-12-07T06:38:34;102225.21;;;5.21;61.25
70242;BME280;57631;52.218;0.108;2022-12-07T06:41:00;102226.98;;;5.54;58.46
70242;BME280;57631;52.218;0.108;2022-12-07T06:43:25;102230.30;;;6.02;58.01
70242;BME280;57631;52.218;0.108;2022-12-07T06:45:51;102228.88;;;5.48;57.94
70242;BME280;57631;52.218;0.108;2022-12-07T06:48:16;102232.67;;;5.43;59.02
70242;BME280;57631;52.218;0.108;2022-12-07T06:50:44;102235.61;;;4.72;61.14
70242;BME280;57631;52.218;0.108;2022-12-07T06:53:08;102234.28;;;5.09;59.29
70242;BME280;57631;52.218;0.108;2022-12-07T06:55:33;102231.65;;;5.70;58.80
70242;BME280;57631;52.218;0.108;2022-12-07T06:57:59;102231.71;;;5.27;59.16
70242;BME280;57631;52.218;0.108;2022-12-07T07:00:25;102232.32;;;5.75;58.65
70242;BME280;57631;52.218;0.108;2022-12-07T07:02:50;102233.53;;;6.05;57.45
70242;BME280;57631;52.218;0.108;2022-12-07T07:05:16;102236.43;;;6.19;56.26
70242;BME280;57631;52.218;0.108;2022-12-07T07:07:41;102242.02;;;3.29;65.62
70242;BME280;57631;52.218;0.108;2022-12-07T07:10:07;102241.24;;;5.24;57.84
70242;BME280;57631;52.218;0.108;2022-12-07T07:12:33;102240.01;;;4.87;59.64
70242;BME280;57631;52.218;0.108;2022-12-07T07:14:59;102242.56;;;4.47;60.34
70242;BME280;57631;52.218;0.108;2022-12-07T07:17:24;102244.16;;;5.27;59.05
70242;BME280;57631;52.218;0.108;2022-12-07T07:19:50;102243.00;;;5.22;59.20
70242;BME280;57631;52.218;0.108;2022-12-07T07:22:15;102252.98;;;3.76;65.23
70242;BME280;57631;52.218;0.108;2022-12-07T07:24:41;102248.41;;;5.30;59.47
70242;BME280;57631;52.218;0.108;2022-12-07T07:27:06;102249.34;;;5.79;57.80
70242;BME280;57631;52.218;0.108;2022-12-07T07:29:32;102249.34;;;5.58;56.44
70242;BME280;57631;52.218;0.108;2022-12-07T07:31:58;102249.98;;;5.19;57.77
70242;BME280;57631;52.218;0.108;2022-12-07T07:34:23;102250.85;;;4.75;59.19
70242;BME280;57631;52.218;0.108;2022-12-07T07:36:49;102248.54;;;5.30;59.82
70242;BME280;57631;52.218;0.108;2022-12-07T07:39:14;102249.18;;;5.20;59.11
70242;BME280;57631;52.218;0.108;2022-12-07T07:41:40;102251.34;;;5.45;58.50
70242;BME280;57631;52.218;0.108;2022-12-07T07:44:06;102253.05;;;5.46;58.26
70242;BME280;57631;52.218;0.108;2022-12-07T07:46:31;102253.23;;;5.41;59.91
70242;BME280;57631;52.218;0.108;2022-12-07T07:48:57;102256.84;;;5.16;59.91
70242;BME280;57631;52.218;0.108;2022-12-07T07:51:23;102259.57;;;4.83;60.82
70242;BME280;57631;52.218;0.108;2022-12-07T07:53:48;102258.36;;;4.56;60.10
70242;BME280;57631;52.218;0.108;2022-12-07T07:56:14;102256.58;;;5.05;61.12
70242;BME280;57631;52.218;0.108;2022-12-07T07:58:39;102252.40;;;4.84;60.93
70242;BME280;57631;52.218;0.108;2022-12-07T08:01:06;102244.27;;;4.46;60.74
70242;BME280;57631;52.218;0.108;2022-12-07T08:03:31;102247.28;;;4.48;62.15
70242;BME280;57631;52.218;0.108;2022-12-07T08:05:57;102241.23;;;4.20;64.11
70242;BME280;57631;52.218;0.108;2022-12-07T08:08:22;102243.00;;;4.17;64.24
70242;BME280;57631;52.218;0.108;2022-12-07T08:10:47;102245.13;;;4.76;61.96
70242;BME280;57631;52.218;0.108;2022-12-07T08:13:15;102246.38;;;4.70;62.03
70242;BME280;57631;52.218;0.108;2022-12-07T08:15:40;102250.80;;;4.84;61.91
70242;BME280;57631;52.218;0.108;2022-12-07T08:18:05;102253.79;;;4.30;62.16
70242;BME280;57631;52.218;0.108;2022-12-07T08:20:30;102248.51;;;4.34;62.33
70242;BME280;57631;52.218;0.108;2022-12-07T08:22:55;102242.16;;;5.06;61.52
70242;BME280;57631;52.218;0.108;2022-12-07T08:25:21;102244.07;;;4.82;60.23
70242;BME280;57631;52.218;0.108;2022-12-07T08:27:47;102246.34;;;5.00;61.75
70242;BME280;57631;52.218;0.108;2022-12-07T08:30:13;102241.40;;;5.10;60.06
70242;BME280;57631;52.218;0.108;2022-12-07T08:32:39;102239.50;;;4.97;60.17
70242;BME280;57631;52.218;0.108;2022-12-07T08:35:06;102242.93;;;4.46;61.90
70242;BME280;57631;52.218;0.108;2022-12-07T08:37:31;102240.26;;;4.73;62.19
70242;BME280;57631;52.218;0.108;2022-12-07T08:39:56;102237.42;;;5.11;61.24
70242;BME280;57631;52.218;0.108;2022-12-07T08:42:21;102237.13;;;5.04;61.73
70242;BME280;57631;52.218;0.108;2022-12-07T08:44:47;102239.30;;;5.14;60.15
70242;BME280;57631;52.218;0.108;2022-12-07T08:47:12;102238.36;;;4.81;61.19
70242;BME280;57631;52.218;0.108;2022-12-07T08:49:40;102235.60;;;5.67;60.17
70242;BME280;57631;52.218;0.108;2022-12-07T08:52:05;102232.27;;;5.65;58.55
70242;BME280;57631;52.218;0.108;2022-12-07T08:54:29;102235.63;;;6.09;58.38
70242;BME280;57631;52.218;0.108;2022-12-07T08:56:55;102235.26;;;6.37;55.77
70242;BME280;57631;52.218;0.108;2022-12-07T08:59:21;102236.84;;;6.27;56.39
70242;BME280;57631;52.218;0.108;2022-12-07T09:01:46;102233.72;;;6.38;55.72
70242;BME280;57631;52.218;0.108;2022-12-07T09:04:12;102238.38;;;6.93;54.65
70242;BME280;57631;52.218;0.108;2022-12-07T09:06:38;102234.72;;;4.40;59.50
70242;BME280;57631;52.218;0.108;2022-12-07T09:09:03;102235.33;;;5.80;57.10
70242;BME280;57631;52.218;0.108;2022-12-07T09:11:29;102233.62;;;5.30;58.15
70242;BME280;57631;52.218;0.108;2022-12-07T09:13:54;102231.08;;;6.70;55.70
70242;BME280;57631;52.218;0.108;2022-12-07T09:16:20;102231.73;;;6.74;54.98
70242;BME280;57631;52.218;0.108;2022-12-07T09:18:45;102228.45;;;7.77;53.17
70242;BME280;57631;52.218;0.108;2022-12-07T09:21:11;102229.78;;;6.81;53.48
70242;BME280;57631;52.218;0.108;2022-12-07T09:23:36;102232.78;;;6.51;54.81
70242;BME280;57631;52.218;0.108;2022-12-07T09:26:03;102234.39;;;6.08;55.85
70242;BME280;57631;52.218;0.108;2022-12-07T09:28:27;102239.42;;;6.58;55.48
70242;BME280;57631;52.218;0.108;2022-12-07T09:30:53;102244.16;;;7.01;54.43
70242;BME280;57631;52.218;0.108;2022-12-07T09:33:19;102244.94;;;7.41;53.33
70242;BME280;57631;52.218;0.108;2022-12-07T09:35:44;102248.52;;;7.42;53.31
70242;BME280;57631;52.218;0.108;2022-12-07T09:38:10;102246.34;;;6.14;54.43
70242;BME280;57631;52.218;0.108;2022-12-07T09:40:35;102249.04;;;6.66;54.72
70242;BME280;57631;52.218;0.108;2022-12-07T09:43:01;102246.21;;;4.68;59.56
70242;BME280;57631;52.218;0.108;2022-12-07T09:45:32;102243.20;;;5.83;57.25
70242;BME280;57631;52.218;0.108;2022-12-07T09:47:52;102241.52;;;6.28;55.81
70242;BME280;57631;52.218;0.108;2022-12-07T09:50:20;102241.36;;;6.21;56.88
70242;BME280;57631;52.218;0.108;2022-12-07T09:52:44;102235.63;;;5.51;58.79
70242;BME280;57631;52.218;0.108;2022-12-07T09:55:12;102237.06;;;6.40;56.07
70242;BME280;57631;52.218;0.108;2022-12-07T09:57:34;102239.48;;;6.74;56.65
70242;BME280;57631;52.218;0.108;2022-12-07T10:00:03;102238.28;;;6.21;55.30
70242;BME280;57631;52.218;0.108;2022-12-07T10:02:35;102240.27;;;7.03;54.31
70242;BME280;57631;52.218;0.108;2022-12-07T10:04:51;102237.05;;;7.58;53.43
70242;BME280;57631;52.218;0.108;2022-12-07T10:07:17;102235.04;;;7.61;52.88
70242;BME280;57631;52.218;0.108;2022-12-07T10:09:42;102231.27;;;8.32;52.31
70242;BME280;57631;52.218;0.108;2022-12-07T10:12:10;102232.48;;;7.74;52.46
70242;BME280;57631;52.218;0.108;2022-12-07T10:14:35;102231.66;;;8.11;51.11
70242;BME280;57631;52.218;0.108;2022-12-07T10:17:00;102233.45;;;7.02;53.20
70242;BME280;57631;52.218;0.108;2022-12-07T10:19:27;102235.06;;;7.11;55.54
70242;BME280;57631;52.218;0.108;2022-12-07T10:24:15;102223.26;;;7.26;53.07
70242;BME280;57631;52.218;0.108;2022-12-07T10:26:48;102219.57;;;6.24;55.86
70242;BME280;57631;52.218;0.108;2022-12-07T10:29:14;102215.68;;;7.11;53.56
70242;BME280;57631;52.218;0.108;2022-12-07T10:31:32;102218.94;;;6.70;55.36
70242;BME280;57631;52.218;0.108;2022-12-07T10:34:00;102221.42;;;7.10;55.36
70242;BME280;57631;52.218;0.108;2022-12-07T10:36:25;102220.89;;;6.45;57.41
70242;BME280;57631;52.218;0.108;2022-12-07T10:38:51;102220.03;;;6.82;57.01
70242;BME280;57631;52.218;0.108;2022-12-07T10:41:15;102214.59;;;7.15;55.69
70242;BME280;57631;52.218;0.108;2022-12-07T10:43:47;102206.75;;;7.19;55.23
70242;BME280;57631;52.218;0.108;2022-12-07T10:48:35;102203.58;;;7.36;55.83
70242;BME280;57631;52.218;0.108;2022-12-07T10:51:06;102200.28;;;7.59;54.99
70242;BME280;57631;52.218;0.108;2022-12-07T10:53:33;102196.75;;;6.94;56.24
70242;BME280;57631;52.218;0.108;2022-12-07T10:56:01;102192.99;;;6.89;56.35
70242;BME280;57631;52.218;0.108;2022-12-07T10:58:26;102189.54;;;6.32;56.78
70242;BME280;57631;52.218;0.108;2022-12-07T11:00:45;102178.70;;;6.15;58.11
70242;BME280;57631;52.218;0.108;2022-12-07T11:05:38;102174.86;;;6.63;57.53
70242;BME280;57631;52.218;0.108;2022-12-07T11:08:03;102172.73;;;7.76;55.53
70242;BME280;57631;52.218;0.108;2022-12-07T11:10:26;102165.81;;;7.87;54.06
70242;BME280;57631;52.218;0.108;2022-12-07T11:12:57;102164.36;;;7.67;55.12
70242;BME280;57631;52.218;0.108;2022-12-07T11:15:17;102164.13;;;8.84;52.19
70242;BME280;57631;52.218;0.108;2022-12-07T11:17:45;102154.37;;;7.58;54.56
70242;BME280;57631;52.218;0.108;2022-12-07T11:20:13;102153.12;;;7.08;54.43
70242;BME280;57631;52.218;0.108;2022-12-07T11:22:36;102145.20;;;7.58;53.63
70242;BME280;57631;52.218;0.108;2022-12-07T11:25:01;102148.36;;;8.47;52.57
70242;BME280;57631;52.218;0.108;2022-12-07T11:27:27;102143.74;;;9.11;50.46
70242;BME280;57631;52.218;0.108;2022-12-07T11:29:55;102143.73;;;8.88;51.75
70242;BME280;57631;52.218;0.108;2022-12-07T11:32:17;102143.12;;;8.50;53.32
70242;BME280;57631;52.218;0.108;2022-12-07T11:34:44;102134.03;;;8.86;51.51
70242;BME280;57631;52.218;0.108;2022-12-07T11:37:05;102129.46;;;8.56;51.08
70242;BME280;57631;52.218;0.108;2022-12-07T11:39:33;102120.83;;;8.51;51.73
70242;BME280;57631;52.218;0.108;2022-12-07T11:42:00;102120.93;;;7.91;53.17
70242;BME280;57631;52.218;0.108;2022-12-07T11:44:27;102120.80;;;8.64;52.16
70242;BME280;57631;52.218;0.108;2022-12-07T11:46:49;102116.28;;;8.40;51.45
70242;BME280;57631;52.218;0.108;2022-12-07T11:49:16;102116.12;;;8.53;52.76
70242;BME280;57631;52.218;0.108;2022-12-07T11:51:38;102111.54;;;8.53;52.79
70242;BME280;57631;52.218;0.108;2022-12-07T11:54:05;102103.53;;;7.83;53.47
70242;BME280;57631;52.218;0.108;2022-12-07T11:56:28;102094.59;;;8.93;51.13
70242;BME280;57631;52.218;0.108;2022-12-07T11:58:56;102093.24;;;8.40;52.46
70242;BME280;57631;52.218;0.108;2022-12-07T12:01:29;102086.26;;;8.21;53.62
70242;BME280;57631;52.218;0.108;2022-12-07T12:03:46;102081.92;;;8.40;52.81
70242;BME280;57631;52.218;0.108;2022-12-07T12:06:09;102082.85;;;8.07;52.08
70242;BME280;57631;52.218;0.108;2022-12-07T12:08:39;102076.78;;;8.47;53.34
70242;BME280;57631;52.218;0.108;2022-12-07T12:11:06;102073.77;;;8.31;52.86
70242;BME280;57631;52.218;0.108;2022-12-07T12:13:44;102069.97;;;9.09;51.53
70242;BME280;57631;52.218;0.108;2022-12-07T12:16:03;102073.75;;;9.64;50.40
70242;BME280;57631;52.218;0.108;2022-12-07T12:18:27;102072.76;;;11.20;46.30
70242;BME280;57631;52.218;0.108;2022-12-07T12:20:45;102069.83;;;11.49;44.64
70242;BME280;57631;52.218;0.108;2022-12-07T12:23:11;102066.75;;;10.51;46.29
70242;BME280;57631;52.218;0.108;2022-12-07T12:25:37;102059.08;;;9.98;48.11
70242;BME280;57631;52.218;0.108;2022-12-07T12:27:59;102060.12;;;10.36;48.57
70242;BME280;57631;52.218;0.108;2022-12-07T12:30:31;102057.13;;;9.88;48.92
70242;BME280;57631;52.218;0.108;2022-12-07T12:32:49;102057.06;;;9.28;49.28
70242;BME280;57631;52.218;0.108;2022-12-07T12:35:20;102053.44;;;9.12;49.89
70242;BME280;57631;52.218;0.108;2022-12-07T12:37:44;102054.61;;;9.31;50.19
70242;BME280;57631;52.218;0.108;2022-12-07T12:54:41;102037.92;;;10.37;48.40
70242;BME280;57631;52.218;0.108;2022-12-07T12:57:09;102035.79;;;10.30;45.69
70242;BME280;57631;52.218;0.108;2022-12-07T12:59:31;102028.80;;;10.21;47.46
70242;BME280;57631;52.218;0.108;2022-12-07T13:04:28;102015.74;;;10.50;46.25
70242;BME280;57631;52.218;0.108;2022-12-07T13:06:47;102007.90;;;10.52;47.28
70242;BME280;57631;52.218;0.108;2022-12-07T13:09:18;102004.26;;;11.39;46.79
70242;BME280;57631;52.218;0.108;2022-12-07T13:11:42;102005.41;;;12.39;42.80
70242;BME280;57631;52.218;0.108;2022-12-07T13:16:36;101999.57;;;14.03;40.47
70242;BME280;57631;52.218;0.108;2022-12-07T13:18:54;101999.53;;;14.67;38.52
70242;BME280;57631;52.218;0.108;2022-12-07T13:23:54;101989.89;;;14.31;37.95
70242;BME280;57631;52.218;0.108;2022-12-07T13:26:16;101984.61;;;14.03;37.97